Time;durP1;ratioP1;P1;durP2;ratioP2;P2;SDS_P1;SDS_P2;PMS_P1;PMS_P2;Temp;Humidity;BMP_temperature;BMP_pressure;BME280_temperature;BME280_humidity;BME280_pressure;Samples;Min_cycle;Max_cycle;Signal;HPM_P1;HPM_P2
2021/11/17 02:26:41;;;;;;;0.30;0.30;;;5.80;98.90;;;;;;4939167;29;20189;-68
2021/11/17 02:29:30;;;;;;;0.40;0.40;;;6.00;98.80;;;;;;4939043;29;20226;-68
2021/11/17 02:32:42;;;;;;;0.30;0.30;;;6.00;98.30;;;;;;4938900;29;20682;-67
2021/11/17 02:35:45;;;;;;;0.35;0.35;;;6.00;98.10;;;;;;4920756;29;20555;-68
2021/11/17 02:38:30;;;;;;;0.30;0.30;;;5.90;98.30;;;;;;4938817;29;20231;-68
2021/11/17 02:41:14;;;;;;;0.40;0.40;;;5.90;98.40;;;;;;4937669;29;20745;-68
2021/11/17 02:44:00;;;;;;;0.40;0.40;;;6.00;98.40;;;;;;4938757;29;20222;-68
2021/11/17 02:46:58;;;;;;;0.30;0.30;;;6.20;98.30;;;;;;4937357;29;20646;-67
2021/11/17 02:49:36;;;;;;;0.40;0.40;;;6.20;97.80;;;;;;4928101;29;20642;-67
2021/11/17 02:52:13;;;;;;;0.30;0.30;;;6.30;98.10;;;;;;4938513;29;20576;-68
2021/11/17 02:54:51;;;;;;;0.40;0.40;;;6.30;98.20;;;;;;4937298;29;20873;-67
2021/11/17 02:57:20;;;;;;;0.30;0.30;;;6.40;98.10;;;;;;4938668;29;20237;-68
2021/11/17 03:00:23;;;;;;;0.30;0.30;;;6.40;97.60;;;;;;4938338;29;20207;-68
2021/11/17 03:03:09;;;;;;;0.40;0.40;;;6.40;97.20;;;;;;4938540;29;20174;-67
2021/11/17 03:05:41;;;;;;;0.30;0.30;;;6.30;97.20;;;;;;4938310;29;20178;-68
2021/11/17 03:08:24;;;;;;;0.30;0.30;;;6.20;97.40;;;;;;4938440;29;20174;-68
2021/11/17 03:11:08;;;;;;;0.40;0.40;;;6.00;97.80;;;;;;4938225;29;20193;-68
2021/11/17 03:13:42;;;;;;;0.40;0.40;;;6.00;97.70;;;;;;4938306;29;20201;-68
2021/11/17 03:16:37;;;;;;;0.30;0.30;;;6.10;98.00;;;;;;4938055;29;20182;-68
2021/11/17 03:19:12;;;;;;;0.40;0.40;;;6.20;97.80;;;;;;4935071;29;20190;-68
2021/11/17 03:21:50;;;;;;;0.40;0.40;;;6.30;97.30;;;;;;4937876;29;20197;-67
2021/11/17 03:24:22;;;;;;;0.40;0.40;;;6.30;97.20;;;;;;4936911;29;20186;-67
2021/11/17 03:27:06;;;;;;;0.30;0.30;;;6.30;97.30;;;;;;4936759;29;20254;-68
2021/11/17 03:29:40;;;;;;;0.35;0.35;;;6.30;97.30;;;;;;4935983;29;20583;-68
2021/11/17 03:32:33;;;;;;;0.40;0.40;;;6.40;97.40;;;;;;4937823;29;20196;-67
2021/11/17 03:35:04;;;;;;;0.30;0.30;;;6.30;97.40;;;;;;4937754;29;20658;-68
2021/11/17 03:37:42;;;;;;;0.40;0.40;;;6.20;97.50;;;;;;4937933;29;20174;-68
2021/11/17 03:40:32;;;;;;;0.30;0.30;;;6.20;97.60;;;;;;4937621;29;20619;-67
2021/11/17 03:43:35;;;;;;;0.30;0.30;;;6.30;97.60;;;;;;4937715;29;20606;-68
2021/11/17 03:46:12;;;;;;;0.30;0.30;;;6.10;97.30;;;;;;4937490;29;20205;-67
2021/11/17 03:48:50;;;;;;;0.35;0.35;;;6.20;97.20;;;;;;4920576;29;20237;-68
2021/11/17 03:51:28;;;;;;;0.30;0.30;;;6.30;97.30;;;;;;4935484;29;20198;-69
2021/11/17 03:54:30;;;;;;;0.30;0.30;;;6.30;97.40;;;;;;4937675;29;20174;-68
2021/11/17 03:57:24;;;;;;;0.30;0.30;;;6.40;97.50;;;;;;4935196;29;20225;-68
2021/11/17 04:00:11;;;;;;;0.30;0.30;;;6.40;97.40;;;;;;4937695;29;20185;-67
2021/11/17 04:02:37;;;;;;;0.30;0.30;;;6.30;96.80;;;;;;4936151;29;20165;-65
2021/11/17 04:09:08;;;;;;;0.40;0.40;;;6.40;96.70;;;;;;4935964;29;20225;-67
2021/11/17 04:11:37;;;;;;;0.35;0.35;;;6.40;96.80;;;;;;4936792;29;20285;-68
2021/11/17 04:14:17;;;;;;;0.30;0.30;;;6.30;96.70;;;;;;4937123;29;20222;-67
2021/11/17 04:17:04;;;;;;;0.30;0.30;;;6.30;96.50;;;;;;4936677;29;20573;-67
2021/11/17 04:19:39;;;;;;;0.40;0.40;;;6.20;96.20;;;;;;4937478;29;20178;-66
2021/11/17 04:22:20;;;;;;;0.40;0.40;;;6.00;96.40;;;;;;4936763;29;20154;-70
2021/11/17 04:25:01;;;;;;;0.30;0.30;;;6.00;96.70;;;;;;4935744;29;20162;-68
2021/11/17 04:28:09;;;;;;;0.30;0.30;;;5.90;96.70;;;;;;4936926;29;20178;-69
2021/11/17 04:30:48;;;;;;;0.30;0.30;;;6.00;96.90;;;;;;4935758;29;20189;-69
2021/11/17 04:33:17;;;;;;;0.32;0.32;;;6.10;97.00;;;;;;4937182;29;20181;-67
2021/11/17 04:36:04;;;;;;;0.40;0.40;;;6.10;96.90;;;;;;4936574;29;20201;-68
2021/11/17 04:38:45;;;;;;;0.30;0.30;;;6.20;97.10;;;;;;4935694;29;20158;-70
2021/11/17 04:41:34;;;;;;;0.40;0.40;;;6.20;96.90;;;;;;4936283;29;20222;-69
2021/11/17 04:44:21;;;;;;;0.30;0.30;;;6.20;96.70;;;;;;4934859;29;20402;-69
2021/11/17 04:47:00;;;;;;;0.40;0.40;;;6.20;96.80;;;;;;4936276;29;20173;-68
2021/11/17 04:49:59;;;;;;;0.40;0.40;;;6.10;96.70;;;;;;4935066;29;20185;-69
2021/11/17 04:53:00;;;;;;;0.30;0.30;;;6.00;96.50;;;;;;4937055;29;20537;-67
2021/11/17 04:55:34;;;;;;;0.30;0.30;;;5.70;97.00;;;;;;4934210;29;20182;-68
2021/11/17 04:58:18;;;;;;;0.40;0.40;;;5.60;97.20;;;;;;4936781;29;20171;-68
2021/11/17 05:00:44;;;;;;;0.35;0.35;;;5.60;97.40;;;;;;4934873;29;20293;-69
2021/11/17 05:03:25;;;;;;;0.40;0.40;;;5.60;97.50;;;;;;4937001;29;20246;-68
2021/11/17 05:06:05;;;;;;;0.30;0.30;;;5.60;97.30;;;;;;4936499;29;20524;-69
2021/11/17 05:08:45;;;;;;;0.35;0.35;;;5.80;96.90;;;;;;4936605;29;20163;-68
2021/11/17 05:11:32;;;;;;;0.40;0.40;;;5.90;97.20;;;;;;4936200;29;20210;-67
2021/11/17 05:14:13;;;;;;;0.38;0.38;;;5.80;97.10;;;;;;4936278;29;20174;-69
2021/11/17 05:16:57;;;;;;;0.40;0.40;;;5.70;97.20;;;;;;4934956;29;20760;-68
2021/11/17 05:19:52;;;;;;;0.40;0.40;;;5.70;97.20;;;;;;4936631;29;20522;-68
2021/11/17 05:22:42;;;;;;;0.40;0.40;;;6.00;97.20;;;;;;4935301;29;20162;-69
2021/11/17 05:25:17;;;;;;;0.30;0.30;;;6.00;96.70;;;;;;4936319;29;20159;-71
2021/11/17 05:27:49;;;;;;;0.30;0.30;;;6.00;96.60;;;;;;4936706;29;20170;-69
2021/11/17 05:30:39;;;;;;;0.38;0.38;;;6.00;96.40;;;;;;4936385;29;20197;-67
2021/11/17 05:33:14;;;;;;;0.40;0.40;;;6.00;96.30;;;;;;4936096;29;20642;-69
2021/11/17 05:35:39;;;;;;;0.40;0.40;;;6.10;96.40;;;;;;4934893;29;20204;-69
2021/11/17 05:38:18;;;;;;;0.40;0.40;;;6.10;96.20;;;;;;4935255;29;20174;-68
2021/11/17 05:41:01;;;;;;;0.32;0.32;;;6.20;96.30;;;;;;4934600;29;20190;-68
2021/11/17 05:43:51;;;;;;;0.40;0.40;;;6.30;96.20;;;;;;4934977;29;20203;-69
2021/11/17 05:46:31;;;;;;;0.30;0.30;;;6.20;95.90;;;;;;4935950;29;20175;-69
2021/11/17 05:49:16;;;;;;;0.40;0.40;;;6.30;96.00;;;;;;4935891;29;20178;-69
2021/11/17 05:52:00;;;;;;;0.30;0.30;;;6.30;96.00;;;;;;4934294;29;20202;-71
2021/11/17 05:54:32;;;;;;;0.38;0.38;;;6.30;95.50;;;;;;4939731;29;20505;-68
2021/11/17 05:57:08;;;;;;;0.30;0.30;;;6.30;95.20;;;;;;4939905;29;20264;-70
2021/11/17 05:59:43;;;;;;;0.40;0.40;;;6.20;95.50;;;;;;4938972;29;20221;-69
2021/11/17 06:02:11;;;;;;;0.30;0.30;;;6.10;95.70;;;;;;4939583;29;20201;-67
2021/11/17 06:04:37;;;;;;;0.30;0.30;;;6.00;95.50;;;;;;4939677;29;20194;-70
2021/11/17 06:07:02;;;;;;;0.37;0.37;;;5.90;95.50;;;;;;4939691;29;20181;-71
2021/11/17 06:09:28;;;;;;;0.40;0.40;;;6.00;95.40;;;;;;4938664;29;20622;-67
2021/11/17 06:12:00;;;;;;;0.30;0.30;;;6.00;95.30;;;;;;4939300;29;20201;-69
2021/11/17 06:14:32;;;;;;;0.40;0.40;;;6.00;95.40;;;;;;4938789;29;20174;-74
2021/11/17 06:17:06;;;;;;;0.30;0.30;;;6.20;95.40;;;;;;4939010;29;20541;-70
2021/11/17 06:19:38;;;;;;;0.40;0.40;;;6.30;95.10;;;;;;4939651;29;20189;-69
2021/11/17 06:22:06;;;;;;;0.30;0.30;;;6.30;95.30;;;;;;4939655;29;20158;-70
2021/11/17 06:24:34;;;;;;;0.40;0.40;;;6.10;94.90;;;;;;4938497;29;20693;-68
2021/11/17 06:27:03;;;;;;;0.30;0.30;;;6.10;95.10;;;;;;4939045;29;20183;-69
2021/11/17 06:29:41;;;;;;;0.40;0.40;;;5.80;95.20;;;;;;4939178;29;20174;-68
2021/11/17 06:32:08;;;;;;;0.30;0.30;;;5.90;95.80;;;;;;4937771;29;20166;-68
2021/11/17 06:34:39;;;;;;;0.30;0.30;;;5.90;95.80;;;;;;4939209;29;20202;-68
2021/11/17 06:37:08;;;;;;;0.40;0.40;;;6.00;95.90;;;;;;4938853;29;20198;-68
2021/11/17 06:39:39;;;;;;;0.30;0.30;;;6.00;95.90;;;;;;4939207;29;20177;-69
2021/11/17 06:42:10;;;;;;;0.40;0.40;;;6.00;96.00;;;;;;4939014;29;20523;-69
2021/11/17 06:44:37;;;;;;;0.40;0.40;;;6.10;96.00;;;;;;4939109;29;20290;-69
2021/11/17 06:47:02;;;;;;;0.40;0.40;;;6.00;95.70;;;;;;4939103;29;20186;-70
2021/11/17 06:49:28;;;;;;;0.40;0.40;;;6.10;95.80;;;;;;4939278;29;20181;-68
2021/11/17 06:51:54;;;;;;;0.30;0.30;;;6.10;96.00;;;;;;4938695;29;20234;-69
2021/11/17 06:54:19;;;;;;;0.40;0.40;;;6.10;95.40;;;;;;4938976;29;20188;-68
2021/11/17 06:56:45;;;;;;;0.40;0.40;;;6.10;95.60;;;;;;4938630;29;20193;-70
2021/11/17 06:59:11;;;;;;;0.40;0.40;;;6.00;95.80;;;;;;4938937;29;20237;-68
2021/11/17 07:01:36;;;;;;;0.33;0.33;;;6.00;95.90;;;;;;4938965;29;20190;-70
2021/11/17 07:04:03;;;;;;;0.30;0.30;;;5.90;95.50;;;;;;4938414;29;20295;-68
2021/11/17 07:06:28;;;;;;;0.40;0.40;;;6.00;95.80;;;;;;4938312;29;20837;-69
2021/11/17 07:08:54;;;;;;;0.30;0.30;;;6.10;95.70;;;;;;4938359;29;20182;-69
2021/11/17 07:11:20;;;;;;;0.30;0.30;;;6.10;96.00;;;;;;4938144;29;20221;-69
2021/11/17 07:13:45;;;;;;;0.33;0.33;;;6.20;96.00;;;;;;4938604;29;20406;-68
2021/11/17 07:16:11;;;;;;;0.30;0.30;;;6.20;95.60;;;;;;4938129;29;20673;-69
2021/11/17 07:18:38;;;;;;;0.30;0.30;;;6.30;95.60;;;;;;4937978;29;20543;-69
2021/11/17 07:21:06;;;;;;;0.30;0.30;;;6.40;95.80;;;;;;4937704;29;20202;-68
2021/11/17 07:23:32;;;;;;;0.30;0.30;;;6.40;95.40;;;;;;4937936;29;20182;-68
2021/11/17 07:25:58;;;;;;;0.30;0.30;;;6.50;95.20;;;;;;4937844;29;20178;-69
2021/11/17 07:28:24;;;;;;;0.30;0.30;;;6.40;95.10;;;;;;4938218;29;20544;-68
2021/11/17 07:30:50;;;;;;;0.40;0.40;;;6.40;95.10;;;;;;4937823;29;20441;-69
2021/11/17 07:33:15;;;;;;;0.30;0.30;;;6.30;95.20;;;;;;4937943;29;20189;-68
2021/11/17 07:35:46;;;;;;;0.30;0.30;;;6.30;95.30;;;;;;4937728;29;20190;-69
2021/11/17 07:38:15;;;;;;;0.32;0.32;;;6.30;95.40;;;;;;4937974;29;20637;-69
2021/11/17 07:40:44;;;;;;;0.30;0.30;;;6.40;95.50;;;;;;4937711;29;20225;-69
2021/11/17 07:43:10;;;;;;;0.40;0.40;;;6.40;95.50;;;;;;4937825;29;20198;-69
2021/11/17 07:45:38;;;;;;;0.30;0.30;;;6.20;95.20;;;;;;4937648;29;20202;-68
2021/11/17 07:48:08;;;;;;;0.30;0.30;;;6.10;95.30;;;;;;4937814;29;20543;-69
2021/11/17 07:50:33;;;;;;;0.30;0.30;;;6.00;95.40;;;;;;4937545;29;20650;-68
2021/11/17 07:52:59;;;;;;;0.30;0.30;;;6.10;95.90;;;;;;4937649;29;20257;-68
2021/11/17 07:55:25;;;;;;;0.30;0.30;;;6.10;95.80;;;;;;4937347;29;20440;-68
2021/11/17 07:57:53;;;;;;;0.30;0.30;;;6.10;95.40;;;;;;4937619;29;20174;-68
2021/11/17 08:00:30;;;;;;;0.30;0.30;;;6.10;95.60;;;;;;4936155;29;20434;-69
2021/11/17 08:02:56;;;;;;;0.30;0.30;;;6.20;95.70;;;;;;4936188;29;20540;-68
2021/11/17 08:05:23;;;;;;;0.30;0.30;;;6.20;95.60;;;;;;4937385;29;20174;-69
2021/11/17 08:07:50;;;;;;;0.40;0.40;;;6.30;95.60;;;;;;4937518;29;20179;-69
2021/11/17 08:10:26;;;;;;;0.30;0.30;;;6.20;95.30;;;;;;4937120;29;20265;-69
2021/11/17 08:12:52;;;;;;;0.30;0.30;;;6.30;95.70;;;;;;4937171;29;20185;-68
2021/11/17 08:15:18;;;;;;;0.40;0.40;;;6.40;95.70;;;;;;4936434;29;20186;-67
2021/11/17 08:17:44;;;;;;;0.38;0.38;;;6.50;95.50;;;;;;4937324;29;20230;-68
2021/11/17 08:20:13;;;;;;;0.33;0.33;;;6.50;95.40;;;;;;4937012;29;20190;-69
2021/11/17 08:22:43;;;;;;;0.40;0.40;;;6.60;95.10;;;;;;4937022;29;20166;-69
2021/11/17 08:25:10;;;;;;;0.30;0.30;;;6.60;94.80;;;;;;4937073;29;20282;-69
2021/11/17 08:27:37;;;;;;;0.30;0.30;;;6.50;94.70;;;;;;4937059;29;20182;-67
2021/11/17 08:30:08;;;;;;;0.30;0.30;;;6.50;95.00;;;;;;4936800;29;20198;-68
2021/11/17 08:32:34;;;;;;;0.35;0.35;;;6.40;95.10;;;;;;4937107;29;20262;-68
2021/11/17 08:34:59;;;;;;;0.40;0.40;;;6.40;95.10;;;;;;4936993;29;20264;-68
2021/11/17 08:37:25;;;;;;;0.30;0.30;;;6.30;95.00;;;;;;4936708;29;20285;-67
2021/11/17 08:39:53;;;;;;;0.40;0.40;;;6.10;95.50;;;;;;4936724;29;20218;-68
2021/11/17 08:42:19;;;;;;;0.40;0.40;;;6.10;95.70;;;;;;4936687;29;20625;-68
2021/11/17 08:44:45;;;;;;;0.40;0.40;;;6.10;95.60;;;;;;4936653;29;20183;-68
2021/11/17 08:47:13;;;;;;;0.40;0.40;;;6.30;95.70;;;;;;4936538;29;20539;-69
2021/11/17 08:49:40;;;;;;;0.40;0.40;;;6.30;95.20;;;;;;4936560;29;20407;-67
2021/11/17 08:52:07;;;;;;;0.30;0.30;;;6.40;95.30;;;;;;4936543;29;20270;-68
2021/11/17 08:54:34;;;;;;;0.40;0.40;;;6.40;95.30;;;;;;4936677;29;20186;-68
2021/11/17 08:57:01;;;;;;;0.30;0.30;;;6.50;95.30;;;;;;4936246;29;20264;-69
2021/11/17 08:59:28;;;;;;;0.30;0.30;;;6.50;95.30;;;;;;4936585;29;20221;-68
2021/11/17 09:02:00;;;;;;;0.40;0.40;;;6.60;95.30;;;;;;4936384;29;20222;-68
2021/11/17 09:04:26;;;;;;;0.30;0.30;;;6.60;94.90;;;;;;4935667;29;20209;-69
2021/11/17 09:06:51;;;;;;;0.40;0.40;;;6.70;94.60;;;;;;4936153;29;20210;-67
2021/11/17 09:09:18;;;;;;;0.30;0.30;;;6.70;94.60;;;;;;4937016;29;20174;-67
2021/11/17 09:11:44;;;;;;;0.40;0.40;;;6.70;94.50;;;;;;4936278;29;20209;-68
2021/11/17 09:14:11;;;;;;;0.30;0.30;;;6.60;95.00;;;;;;4936671;29;20657;-70
2021/11/17 09:16:39;;;;;;;0.40;0.40;;;6.70;95.40;;;;;;4936471;29;20210;-69
2021/11/17 09:19:06;;;;;;;0.38;0.38;;;6.70;95.40;;;;;;4936687;29;20257;-70
2021/11/17 09:21:34;;;;;;;0.30;0.30;;;6.80;95.10;;;;;;4936747;29;20257;-68
2021/11/17 09:24:02;;;;;;;0.30;0.30;;;6.70;94.90;;;;;;4936818;29;20208;-70
2021/11/17 09:26:28;;;;;;;0.30;0.30;;;6.60;94.90;;;;;;4936135;29;20269;-70
2021/11/17 09:28:58;;;;;;;0.30;0.30;;;6.60;95.00;;;;;;4940129;29;20249;-69
2021/11/17 09:31:28;;;;;;;0.30;0.30;;;6.70;95.20;;;;;;4940636;29;20194;-69
2021/11/17 09:33:54;;;;;;;0.38;0.38;;;6.70;95.20;;;;;;4940488;29;20630;-70
2021/11/17 09:36:23;;;;;;;0.40;0.40;;;6.80;95.30;;;;;;4939913;29;20732;-69
2021/11/17 09:38:51;;;;;;;0.40;0.40;;;6.90;94.90;;;;;;4940005;29;20181;-70
2021/11/17 09:41:20;;;;;;;0.38;0.38;;;6.80;94.50;;;;;;4939801;29;20182;-68
2021/11/17 09:43:51;;;;;;;0.38;0.38;;;6.80;94.70;;;;;;4939589;29;20174;-70
2021/11/17 09:46:20;;;;;;;0.30;0.30;;;6.90;94.80;;;;;;4938402;29;20170;-68
2021/11/17 09:49:01;;;;;;;0.40;0.40;;;7.00;94.40;;;;;;4940164;29;20170;-69
2021/11/17 09:51:37;;;;;;;0.38;0.38;;;6.80;94.30;;;;;;4939925;29;20230;-68
2021/11/17 09:54:24;;;;;;;0.30;0.30;;;6.90;94.50;;;;;;4940229;29;20174;-69
2021/11/17 09:57:00;;;;;;;0.30;0.30;;;7.00;94.50;;;;;;4939499;29;20202;-69
2021/11/17 09:59:37;;;;;;;0.30;0.30;;;7.10;94.10;;;;;;4939902;29;20189;-70
2021/11/17 10:02:10;;;;;;;0.38;0.38;;;7.00;93.80;;;;;;4939788;29;20151;-68
2021/11/17 10:04:57;;;;;;;0.30;0.30;;;7.00;93.80;;;;;;4939949;29;20178;-68
2021/11/17 10:13:12;;;;;;;0.40;0.40;;;7.30;93.60;;;;;;4939800;29;20174;-69
2021/11/17 10:15:42;;;;;;;0.40;0.40;;;7.60;93.10;;;;;;4939418;29;20206;-66
2021/11/17 10:18:17;;;;;;;0.30;0.30;;;7.60;92.70;;;;;;4939904;29;20171;-66
2021/11/17 10:20:49;;;;;;;0.30;0.30;;;7.90;92.50;;;;;;4939403;29;20186;-67
2021/11/17 10:23:31;;;;;;;0.30;0.30;;;8.00;91.70;;;;;;4940086;29;20171;-69
2021/11/17 10:26:06;;;;;;;0.30;0.30;;;7.90;91.40;;;;;;4939224;29;20174;-70
2021/11/17 10:28:43;;;;;;;0.40;0.40;;;7.80;91.70;;;;;;4938153;29;20183;-68
2021/11/17 10:31:49;;;;;;;0.30;0.30;;;7.70;91.60;;;;;;4939001;29;20194;-69
2021/11/17 10:34:28;;;;;;;0.40;0.40;;;7.80;92.20;;;;;;4934680;29;20882;-68
2021/11/17 10:37:11;;;;;;;0.30;0.30;;;7.80;92.00;;;;;;4938946;29;20246;-69
2021/11/17 10:39:37;;;;;;;0.30;0.30;;;7.70;91.90;;;;;;4938766;29;20282;-69
2021/11/17 10:42:10;;;;;;;0.30;0.30;;;7.60;92.50;;;;;;4939387;29;20194;-69
2021/11/17 10:44:51;;;;;;;0.30;0.30;;;7.70;92.40;;;;;;4939231;29;20220;-69
2021/11/17 10:47:21;;;;;;;0.30;0.30;;;7.70;92.80;;;;;;4938624;29;20174;-69
2021/11/17 10:49:56;;;;;;;0.30;0.30;;;7.70;92.40;;;;;;4938668;29;20204;-68
2021/11/17 10:52:29;;;;;;;0.40;0.40;;;7.70;92.50;;;;;;4939046;29;20166;-69
2021/11/17 10:54:57;;;;;;;0.30;0.30;;;7.60;92.60;;;;;;4939235;29;20257;-68
2021/11/17 10:57:27;;;;;;;0.40;0.40;;;7.60;92.60;;;;;;4938954;29;20297;-68
2021/11/17 10:59:55;;;;;;;0.40;0.40;;;7.50;92.90;;;;;;4938733;29;20249;-70
2021/11/17 11:02:22;;;;;;;0.30;0.30;;;7.50;92.70;;;;;;4938853;29;20265;-70
2021/11/17 11:04:57;;;;;;;0.30;0.30;;;7.40;92.60;;;;;;4937608;29;20593;-69
2021/11/17 11:07:28;;;;;;;0.40;0.40;;;7.50;92.50;;;;;;4938759;29;20166;-67
2021/11/17 11:09:57;;;;;;;0.30;0.30;;;7.70;92.50;;;;;;4938735;29;20258;-69
2021/11/17 11:12:26;;;;;;;0.30;0.30;;;7.80;92.40;;;;;;4938799;29;20285;-68
2021/11/17 11:15:31;;;;;;;0.40;0.40;;;7.70;92.20;;;;;;4938455;29;20210;-69
2021/11/17 11:18:06;;;;;;;0.30;0.30;;;7.70;92.30;;;;;;4937878;29;20615;-68
2021/11/17 11:20:44;;;;;;;0.30;0.30;;;7.90;92.00;;;;;;4937323;29;20225;-67
2021/11/17 11:23:31;;;;;;;0.30;0.30;;;8.00;91.80;;;;;;4936456;29;20392;-67
2021/11/17 11:26:19;;;;;;;0.40;0.40;;;8.20;91.30;;;;;;4937877;29;20667;-67
2021/11/17 11:29:11;;;;;;;0.30;0.30;;;8.40;91.00;;;;;;4937401;29;20742;-68
2021/11/17 11:31:46;;;;;;;0.40;0.40;;;8.50;90.90;;;;;;4938184;29;20544;-67
2021/11/17 11:34:28;;;;;;;0.40;0.40;;;8.50;90.80;;;;;;4938466;29;20182;-68
2021/11/17 11:36:54;;;;;;;0.30;0.30;;;8.00;90.70;;;;;;4938111;29;20206;-69
2021/11/17 11:39:20;;;;;;;0.30;0.30;;;8.10;91.00;;;;;;4938315;29;20183;-68
2021/11/17 11:42:10;;;;;;;0.30;0.30;;;8.00;90.90;;;;;;4937891;29;20191;-68
2021/11/17 11:44:38;;;;;;;0.30;0.30;;;7.90;91.00;;;;;;4936898;29;20214;-68
2021/11/17 11:47:03;;;;;;;0.30;0.30;;;7.60;91.10;;;;;;4938125;29;20178;-69
2021/11/17 11:49:40;;;;;;;0.30;0.30;;;7.60;92.20;;;;;;4937631;28;20187;-67
2021/11/17 11:52:18;;;;;;;0.30;0.30;;;7.70;92.10;;;;;;4937958;29;20620;-68
2021/11/17 11:54:55;;;;;;;0.30;0.30;;;7.30;92.20;;;;;;4937826;29;20177;-67
2021/11/17 11:57:33;;;;;;;0.30;0.30;;;7.40;92.60;;;;;;4937723;29;20666;-68
2021/11/17 12:00:10;;;;;;;0.30;0.30;;;7.50;92.30;;;;;;4938079;29;20217;-67
2021/11/17 12:02:58;;;;;;;0.30;0.30;;;7.60;92.00;;;;;;4937736;29;20506;-69
2021/11/17 12:05:36;;;;;;;0.40;0.40;;;7.70;91.80;;;;;;4937726;29;20167;-69
2021/11/17 12:08:13;;;;;;;0.30;0.30;;;7.80;92.00;;;;;;4937701;29;20175;-68
2021/11/17 12:10:46;;;;;;;0.30;0.30;;;7.80;91.40;;;;;;4937545;29;20206;-67
2021/11/17 12:13:19;;;;;;;0.30;0.30;;;7.90;91.40;;;;;;4937492;29;20197;-67
2021/11/17 12:16:09;;;;;;;0.30;0.30;;;7.80;91.50;;;;;;4937192;29;20628;-69
2021/11/17 12:18:50;;;;;;;0.30;0.30;;;8.00;91.70;;;;;;4937719;29;20687;-69
2021/11/17 12:21:23;;;;;;;0.35;0.35;;;8.10;91.90;;;;;;4937210;29;20277;-67
2021/11/17 12:24:08;;;;;;;0.30;0.30;;;8.00;91.70;;;;;;4937655;29;20181;-67
2021/11/17 12:26:40;;;;;;;0.30;0.30;;;8.00;91.50;;;;;;4936917;29;20180;-69
2021/11/17 12:29:21;;;;;;;0.32;0.32;;;7.90;91.60;;;;;;4936344;29;20665;-68
2021/11/17 12:32:21;;;;;;;0.32;0.32;;;7.90;91.50;;;;;;4937237;29;20284;-69
2021/11/17 12:34:52;;;;;;;0.40;0.40;;;7.90;91.50;;;;;;4937308;29;20303;-68
2021/11/17 12:37:29;;;;;;;0.40;0.40;;;7.50;91.50;;;;;;4937147;29;20202;-68
2021/11/17 12:40:13;;;;;;;0.35;0.35;;;7.00;92.80;;;;;;4936987;29;20193;-67
2021/11/17 12:42:41;;;;;;;0.30;0.30;;;7.00;92.90;;;;;;4937008;29;20174;-69
2021/11/17 12:45:19;;;;;;;0.35;0.35;;;7.20;93.00;;;;;;4936879;29;20257;-68
2021/11/17 12:48:08;;;;;;;0.30;0.30;;;7.30;92.80;;;;;;4937194;29;20178;-66
2021/11/17 12:50:56;;;;;;;0.30;0.30;;;7.50;92.70;;;;;;4931175;29;20218;-69
2021/11/17 12:53:35;;;;;;;0.30;0.30;;;7.50;92.70;;;;;;4936811;29;20178;-66
2021/11/17 12:56:17;;;;;;;0.30;0.30;;;7.60;92.40;;;;;;4936530;29;20199;-68
2021/11/17 12:58:48;;;;;;;0.30;0.30;;;7.20;92.90;;;;;;4936653;29;20174;-67
2021/11/17 13:01:27;;;;;;;0.30;0.30;;;7.20;93.50;;;;;;4936021;29;20190;-67
2021/11/17 13:03:54;;;;;;;0.30;0.30;;;7.30;93.20;;;;;;4937733;29;20166;-66
2021/11/17 13:06:26;;;;;;;0.30;0.30;;;7.30;93.10;;;;;;4936419;29;20267;-68
2021/11/17 13:09:30;;;;;;;0.30;0.30;;;7.40;93.00;;;;;;4937399;29;20174;-66
2021/11/17 13:11:55;;;;;;;0.30;0.30;;;7.30;92.80;;;;;;4915604;29;20658;-69
2021/11/17 13:14:32;;;;;;;0.30;0.30;;;7.40;93.20;;;;;;4936358;29;20233;-68
2021/11/17 13:17:10;;;;;;;0.40;0.40;;;7.30;93.30;;;;;;4936136;29;20201;-66
2021/11/17 13:19:51;;;;;;;0.30;0.30;;;7.40;93.60;;;;;;4936401;29;20178;-68
2021/11/17 13:22:33;;;;;;;1.13;1.13;;;7.20;93.30;;;;;;4936596;29;20532;-69
2021/11/17 13:25:27;;;;;;;0.30;0.30;;;7.30;93.70;;;;;;4936534;29;20174;-66
2021/11/17 13:28:02;;;;;;;0.30;0.30;;;7.20;93.60;;;;;;4936624;29;20621;-66
2021/11/17 13:30:32;;;;;;;0.30;0.30;;;7.10;93.60;;;;;;4936556;29;20222;-69
2021/11/17 13:33:15;;;;;;;0.40;0.40;;;6.90;94.00;;;;;;4936230;29;20596;-66
2021/11/17 13:35:41;;;;;;;0.40;0.40;;;6.80;94.20;;;;;;4935824;29;20582;-69
2021/11/17 13:38:27;;;;;;;0.30;0.30;;;6.90;94.50;;;;;;4936731;29;20230;-69
2021/11/17 13:40:55;;;;;;;0.82;0.82;;;7.10;94.60;;;;;;4935567;29;20206;-68
2021/11/17 13:43:23;;;;;;;0.30;0.30;;;7.20;94.30;;;;;;4936473;29;20177;-70
2021/11/17 13:45:53;;;;;;;0.30;0.30;;;7.30;94.10;;;;;;4936013;29;20174;-69
2021/11/17 13:48:22;;;;;;;0.40;0.40;;;7.30;94.00;;;;;;4936634;29;20179;-68
2021/11/17 13:50:50;;;;;;;0.35;0.35;;;7.30;93.70;;;;;;4936412;29;20198;-69
2021/11/17 13:53:18;;;;;;;0.30;0.30;;;7.30;93.70;;;;;;4936267;29;20475;-68
2021/11/17 13:55:51;;;;;;;0.52;0.52;;;7.30;93.40;;;;;;4935772;29;20174;-67
2021/11/17 13:58:17;;;;;;;0.50;0.50;;;7.30;93.50;;;;;;4936517;29;20167;-69
2021/11/17 14:00:43;;;;;;;0.30;0.30;;;7.30;93.60;;;;;;4936034;29;20572;-67
2021/11/17 14:03:10;;;;;;;0.30;0.30;;;7.40;93.70;;;;;;4936247;29;20876;-69
2021/11/17 14:05:40;;;;;;;0.30;0.30;;;7.40;93.40;;;;;;4935679;29;20654;-68
2021/11/17 14:08:07;;;;;;;0.30;0.30;;;7.40;93.70;;;;;;4936048;29;20537;-66
2021/11/17 14:10:33;;;;;;;0.30;0.30;;;7.10;93.20;;;;;;4935621;29;20233;-70
2021/11/17 14:13:00;;;;;;;0.30;0.30;;;7.10;93.80;;;;;;4936212;29;20200;-70
2021/11/17 14:15:26;;;;;;;0.40;0.40;;;7.30;93.90;;;;;;4939691;29;20716;-68
2021/11/17 14:17:52;;;;;;;0.30;0.30;;;7.30;93.40;;;;;;4939493;29;20345;-67
2021/11/17 14:20:18;;;;;;;0.40;0.40;;;7.40;93.50;;;;;;4939453;29;20264;-68
2021/11/17 14:22:44;;;;;;;0.30;0.30;;;7.30;93.50;;;;;;4939808;29;20406;-68
2021/11/17 14:25:16;;;;;;;0.50;0.50;;;7.30;93.60;;;;;;4939485;29;20414;-68
2021/11/17 14:28:03;;;;;;;0.30;0.30;;;7.30;93.90;;;;;;4939598;29;20801;-69
2021/11/17 14:30:52;;;;;;;0.40;0.40;;;7.30;93.90;;;;;;4939151;29;20201;-69
2021/11/17 14:33:24;;;;;;;0.35;0.35;;;7.20;93.70;;;;;;4939373;29;20166;-67
2021/11/17 14:35:49;;;;;;;0.30;0.30;;;7.30;93.90;;;;;;4939045;29;20210;-67
2021/11/17 14:38:18;;;;;;;0.30;0.30;;;7.30;93.80;;;;;;4939572;29;20186;-69
2021/11/17 14:40:45;;;;;;;0.30;0.30;;;7.10;93.70;;;;;;4939123;29;20440;-68
2021/11/17 14:43:12;;;;;;;0.40;0.40;;;6.90;93.60;;;;;;4939097;29;20182;-69
2021/11/17 14:45:39;;;;;;;0.40;0.40;;;6.90;94.00;;;;;;4938855;29;20170;-67
2021/11/17 14:48:05;;;;;;;0.30;0.30;;;6.90;94.30;;;;;;4939200;29;20541;-68
2021/11/17 14:50:31;;;;;;;0.30;0.30;;;6.90;94.20;;;;;;4937921;29;20289;-69
2021/11/17 14:52:57;;;;;;;0.33;0.33;;;7.00;94.20;;;;;;4939051;29;20425;-69
2021/11/17 14:55:26;;;;;;;0.40;0.40;;;6.90;94.20;;;;;;4938841;29;20185;-67
2021/11/17 14:57:53;;;;;;;0.30;0.30;;;7.00;94.30;;;;;;4938700;29;20203;-68
2021/11/17 15:00:24;;;;;;;0.30;0.30;;;7.10;94.30;;;;;;4938559;29;20190;-67
2021/11/17 15:02:52;;;;;;;0.30;0.30;;;7.00;94.20;;;;;;4939011;29;20174;-67
2021/11/17 15:05:18;;;;;;;0.30;0.30;;;7.00;94.20;;;;;;4938597;29;20267;-67
2021/11/17 15:07:43;;;;;;;0.37;0.37;;;6.80;94.30;;;;;;4937865;29;20637;-68
2021/11/17 15:10:11;;;;;;;0.30;0.30;;;6.80;94.50;;;;;;4938462;29;20656;-68
2021/11/17 15:12:38;;;;;;;0.40;0.40;;;6.90;94.50;;;;;;4938743;29;20626;-70
2021/11/17 15:15:09;;;;;;;0.40;0.40;;;6.90;94.60;;;;;;4938552;29;20186;-69
2021/11/17 15:17:36;;;;;;;0.30;0.30;;;6.80;94.50;;;;;;4938637;29;20213;-69
2021/11/17 15:20:03;;;;;;;0.30;0.30;;;6.80;94.70;;;;;;4938477;29;20222;-70
2021/11/17 15:22:29;;;;;;;0.30;0.30;;;6.80;94.60;;;;;;4938239;29;20177;-69
2021/11/17 15:24:54;;;;;;;0.30;0.30;;;6.70;94.80;;;;;;4937320;29;20178;-68
2021/11/17 15:27:32;;;;;;;0.30;0.30;;;6.60;94.90;;;;;;4938384;29;20257;-67
2021/11/17 15:30:00;;;;;;;0.50;0.50;;;6.60;95.00;;;;;;4938200;29;20192;-69
2021/11/17 15:32:26;;;;;;;0.40;0.40;;;6.70;95.10;;;;;;4938682;29;20175;-67
2021/11/17 15:34:52;;;;;;;0.30;0.30;;;6.70;95.00;;;;;;4937938;29;20186;-69
2021/11/17 15:37:18;;;;;;;0.37;0.37;;;6.70;94.90;;;;;;4937642;29;20206;-67
2021/11/17 15:39:44;;;;;;;0.30;0.30;;;6.70;94.90;;;;;;4938023;29;20394;-69
2021/11/17 15:42:10;;;;;;;0.30;0.30;;;6.60;94.90;;;;;;4938194;29;20237;-69
2021/11/17 15:44:36;;;;;;;0.40;0.40;;;6.60;95.00;;;;;;4938275;29;20185;-68
2021/11/17 15:47:07;;;;;;;0.30;0.30;;;6.60;95.10;;;;;;4937357;29;20649;-70
2021/11/17 15:49:34;;;;;;;0.40;0.40;;;6.50;95.00;;;;;;4937544;29;20186;-69
2021/11/17 15:52:00;;;;;;;0.30;0.30;;;6.40;95.00;;;;;;4938022;29;20197;-69
2021/11/17 15:54:27;;;;;;;0.40;0.40;;;6.40;95.20;;;;;;4937901;29;20178;-69
2021/11/17 15:56:53;;;;;;;0.65;0.65;;;6.30;95.30;;;;;;4937718;29;20496;-66
2021/11/17 15:59:19;;;;;;;0.40;0.40;;;6.30;95.50;;;;;;4936814;29;20708;-69
2021/11/17 16:01:48;;;;;;;0.30;0.30;;;6.30;95.50;;;;;;4936837;29;20286;-67
2021/11/17 16:04:14;;;;;;;0.30;0.30;;;6.30;95.40;;;;;;4936216;29;20298;-70
2021/11/17 16:06:59;;;;;;;0.40;0.40;;;6.10;95.50;;;;;;4937565;29;20268;-69
2021/11/17 16:09:29;;;;;;;0.50;0.50;;;5.90;95.80;;;;;;4937712;29;20414;-69